createdAt,value
2018-08-13T00:01:52.001Z,41.90
2018-08-13T00:04:20.175Z,42.00
2018-08-13T00:06:49.298Z,41.00
2018-08-13T00:09:49.629Z,40.70
2018-08-13T00:12:17.943Z,41.00
2018-08-13T00:14:46.248Z,41.20
2018-08-13T00:17:16.435Z,42.00
2018-08-13T00:19:44.587Z,42.90
2018-08-13T00:22:13.031Z,42.20
2018-08-13T00:24:41.652Z,42.20
2018-08-13T00:27:09.951Z,42.60
2018-08-13T00:29:38.331Z,43.50
2018-08-13T00:32:06.469Z,43.50
2018-08-13T00:34:34.643Z,43.40
2018-08-13T00:37:02.803Z,43.70
2018-08-13T00:39:31.428Z,43.50
2018-08-13T00:42:00.945Z,43.50
2018-08-13T00:44:29.718Z,43.00
2018-08-13T00:46:58.219Z,43.20
2018-08-13T00:49:26.425Z,43.80
2018-08-13T00:51:54.679Z,43.70
2018-08-13T00:54:22.902Z,43.60
2018-08-13T00:56:51.078Z,43.70
2018-08-13T00:59:20.879Z,43.80
2018-08-13T01:01:49.061Z,43.80
2018-08-13T01:04:17.229Z,44.10
2018-08-13T01:06:46.456Z,44.10
2018-08-13T01:09:14.913Z,45.10
2018-08-13T01:11:43.131Z,44.90
2018-08-13T01:14:12.452Z,45.20
2018-08-13T01:16:41.426Z,45.40
2018-08-13T01:19:09.812Z,45.70
2018-08-13T01:21:38.942Z,45.80
2018-08-13T01:24:08.093Z,45.80
2018-08-13T01:26:36.914Z,45.80
2018-08-13T01:29:05.825Z,46.60
2018-08-13T01:31:34.445Z,47.00
2018-08-13T01:34:02.684Z,46.80
2018-08-13T01:36:31.828Z,47.10
2018-08-13T01:39:00.303Z,47.20
2018-08-13T01:41:29.173Z,47.60
2018-08-13T01:43:59.037Z,47.70
2018-08-13T01:46:28.173Z,47.80
2018-08-13T01:48:57.025Z,48.20
2018-08-13T01:51:26.425Z,48.30
2018-08-13T01:53:55.595Z,48.90
2018-08-13T01:56:24.248Z,48.90
2018-08-13T01:58:53.066Z,49.30
2018-08-13T02:01:21.729Z,49.30
2018-08-13T02:03:49.965Z,49.50
2018-08-13T02:06:18.292Z,50.00
2018-08-13T02:08:46.517Z,49.50
2018-08-13T02:11:14.958Z,50.00
2018-08-13T02:13:43.379Z,50.60
2018-08-13T02:16:11.781Z,50.40
2018-08-13T02:18:46.705Z,50.50
2018-08-13T02:21:14.923Z,50.80
2018-08-13T02:23:44.127Z,51.30
2018-08-13T02:26:12.601Z,51.70
2018-08-13T02:28:40.862Z,51.80
2018-08-13T02:31:09.384Z,52.30
2018-08-13T02:33:37.571Z,52.40
2018-08-13T02:36:06.085Z,52.40
2018-08-13T02:38:34.479Z,52.70
2018-08-13T02:41:03.042Z,52.80
2018-08-13T02:43:31.277Z,52.80
2018-08-13T02:45:59.520Z,52.90
2018-08-13T02:48:27.768Z,53.10
2018-08-13T02:50:56.299Z,53.20
2018-08-13T02:53:24.464Z,53.80
2018-08-13T02:55:55.998Z,53.90
2018-08-13T02:58:24.216Z,54.20
2018-08-13T03:00:52.574Z,54.40
2018-08-13T03:03:20.752Z,54.40
2018-08-13T03:05:49.144Z,55.10
2018-08-13T03:08:17.404Z,55.30
2018-08-13T03:10:45.626Z,55.00
2018-08-13T03:13:13.828Z,54.80
2018-08-13T03:15:42.022Z,54.90
2018-08-13T03:18:10.300Z,54.70
2018-08-13T03:20:38.746Z,55.00
2018-08-13T03:23:07.458Z,54.90
2018-08-13T03:25:35.834Z,54.70
2018-08-13T03:28:04.112Z,54.70
2018-08-13T03:30:33.092Z,55.20
2018-08-13T03:33:01.385Z,56.30
2018-08-13T03:35:30.650Z,56.50
2018-08-13T03:37:59.160Z,56.40
2018-08-13T03:40:28.491Z,57.10
2018-08-13T03:42:56.722Z,57.20
2018-08-13T03:45:25.215Z,57.40
2018-08-13T03:47:53.754Z,57.50
2018-08-13T03:50:22.130Z,57.50
2018-08-13T03:52:50.396Z,57.40
2018-08-13T03:55:18.839Z,57.60
2018-08-13T03:57:47.270Z,57.40
2018-08-13T04:00:16.133Z,57.50
2018-08-13T04:02:44.675Z,57.40
2018-08-13T04:05:13.905Z,57.40
2018-08-13T04:07:42.214Z,57.60
2018-08-13T04:10:12.007Z,57.30
2018-08-13T04:12:41.787Z,57.50
2018-08-13T04:15:11.544Z,57.40
2018-08-13T04:17:39.825Z,57.10
2018-08-13T04:20:10.493Z,56.70
2018-08-13T04:22:38.777Z,56.30
2018-08-13T04:25:08.314Z,55.60
2018-08-13T04:27:36.897Z,55.40
2018-08-13T04:30:12.978Z,55.30
2018-08-13T04:32:42.141Z,55.60
2018-08-13T04:35:10.549Z,55.40
2018-08-13T04:37:39.615Z,56.20
2018-08-13T04:40:10.727Z,54.90
2018-08-13T04:42:39.288Z,55.00
2018-08-13T04:45:08.252Z,54.90
2018-08-13T04:47:36.648Z,55.20
2018-08-13T04:50:07.422Z,54.80
2018-08-13T04:52:36.164Z,54.90
2018-08-13T04:55:06.501Z,54.40
2018-08-13T04:57:36.210Z,54.10
2018-08-13T05:00:06.308Z,53.80
2018-08-13T05:02:34.721Z,53.50
2018-08-13T05:05:03.858Z,53.40
2018-08-13T05:07:32.418Z,53.10
2018-08-13T05:10:00.741Z,53.90
2018-08-13T05:12:29.284Z,53.20
2018-08-13T05:14:57.666Z,53.20
2018-08-13T05:17:27.156Z,53.20
2018-08-13T05:19:55.344Z,52.80
2018-08-13T05:22:23.579Z,52.60
2018-08-13T05:24:51.830Z,52.10
2018-08-13T05:27:20.374Z,51.80
2018-08-13T05:29:48.580Z,51.50
2018-08-13T05:32:16.842Z,51.30
2018-08-13T05:34:45.069Z,51.00
2018-08-13T05:37:13.337Z,50.80
2018-08-13T05:39:42.958Z,50.40
2018-08-13T05:42:12.543Z,49.50
2018-08-13T05:44:40.773Z,47.60
2018-08-13T05:47:09.083Z,46.10
2018-08-13T05:49:37.299Z,44.90
2018-08-13T05:52:05.723Z,43.70
2018-08-13T05:54:33.947Z,42.70
2018-08-13T05:57:02.221Z,42.50
2018-08-13T05:59:30.437Z,40.30
2018-08-13T06:01:58.767Z,39.60
2018-08-13T06:04:26.985Z,38.30
2018-08-13T06:06:55.239Z,37.30
2018-08-13T06:09:23.625Z,36.60
2018-08-13T06:11:52.359Z,36.10
2018-08-13T06:14:20.770Z,35.80
2018-08-13T06:16:48.959Z,36.10
2018-08-13T06:19:17.231Z,34.90
2018-08-13T06:21:45.474Z,33.70
2018-08-13T06:24:13.792Z,33.00
2018-08-13T06:26:42.034Z,31.80
2018-08-13T06:29:11.006Z,30.90
2018-08-13T06:31:39.253Z,30.10
2018-08-13T06:34:07.664Z,29.30
2018-08-13T06:36:35.934Z,29.30
2018-08-13T06:39:07.506Z,29.10
2018-08-13T06:41:35.794Z,28.90
2018-08-13T06:44:04.509Z,27.50
2018-08-13T06:46:32.859Z,26.60
2018-08-13T06:49:01.082Z,25.90
2018-08-13T06:51:29.344Z,25.90
2018-08-13T06:53:57.542Z,26.10
2018-08-13T06:56:26.446Z,25.40
2018-08-13T06:58:54.660Z,24.90
2018-08-13T07:01:22.895Z,24.20
2018-08-13T07:03:51.160Z,24.70
2018-08-13T07:06:19.806Z,24.20
2018-08-13T07:08:48.204Z,23.30
2018-08-13T07:11:16.492Z,22.90
2018-08-13T07:13:44.810Z,22.60
2018-08-13T07:16:13.044Z,22.90
2018-08-13T07:18:42.134Z,23.30
2018-08-13T07:21:10.440Z,23.30
2018-08-13T07:23:38.812Z,22.70
2018-08-13T07:26:07.209Z,21.40
2018-08-13T07:28:36.190Z,20.60
2018-08-13T07:31:04.806Z,20.40
2018-08-13T07:33:33.277Z,20.00
2018-08-13T07:36:01.585Z,19.80
2018-08-13T07:38:29.841Z,19.40
2018-08-13T07:40:58.402Z,18.50
2018-08-13T07:43:26.676Z,18.30
2018-08-13T07:45:54.905Z,18.10
2018-08-13T07:48:23.114Z,17.50
2018-08-13T07:50:51.307Z,17.40
2018-08-13T07:53:19.638Z,17.40
2018-08-13T07:55:47.861Z,18.00
2018-08-13T07:58:16.061Z,18.50
2018-08-13T08:00:44.333Z,18.40
2018-08-13T08:03:12.599Z,18.10
2018-08-13T08:05:41.085Z,17.10
2018-08-13T08:08:09.379Z,16.50
2018-08-13T08:10:37.841Z,16.10
2018-08-13T08:13:06.567Z,15.30
2018-08-13T08:15:34.884Z,15.10
2018-08-13T08:18:04.179Z,14.90
2018-08-13T08:20:32.575Z,14.40
2018-08-13T08:23:00.974Z,13.60
2018-08-13T08:25:30.220Z,13.20
2018-08-13T08:27:59.948Z,13.90
2018-08-13T08:30:28.242Z,13.00
2018-08-13T08:32:56.523Z,12.70
2018-08-13T08:35:25.032Z,13.20
2018-08-13T08:37:53.408Z,14.00
2018-08-13T08:40:21.663Z,13.80
2018-08-13T08:42:50.265Z,13.70
2018-08-13T08:45:22.894Z,13.70
2018-08-13T08:47:53.250Z,13.40
2018-08-13T08:50:22.620Z,12.70
2018-08-13T08:52:50.910Z,13.40
2018-08-13T08:55:19.358Z,13.20
2018-08-13T08:57:48.924Z,12.40
2018-08-13T09:00:20.844Z,11.70
2018-08-13T09:02:49.292Z,12.10
2018-08-13T09:05:17.580Z,11.30
2018-08-13T09:07:46.236Z,11.10
2018-08-13T09:10:14.661Z,11.30
2018-08-13T09:12:42.925Z,11.70
2018-08-13T09:15:14.513Z,11.20
2018-08-13T09:17:59.816Z,10.60
2018-08-13T09:20:45.233Z,10.10
2018-08-13T09:23:30.651Z,11.80
2018-08-13T09:26:16.139Z,11.70
2018-08-13T09:29:01.347Z,11.30
2018-08-13T09:32:11.410Z,10.40
2018-08-13T09:34:55.265Z,9.60
2018-08-13T09:37:23.635Z,9.20
2018-08-13T09:39:52.886Z,9.30
2018-08-13T09:42:21.705Z,9.50
2018-08-13T09:44:49.964Z,9.40
2018-08-13T09:47:18.234Z,9.30
2018-08-13T09:49:46.507Z,8.70
2018-08-13T09:52:14.725Z,9.40
2018-08-13T09:54:43.740Z,9.80
2018-08-13T09:57:12.644Z,9.60
2018-08-13T09:59:40.912Z,9.40
2018-08-13T10:02:09.127Z,9.00
2018-08-13T10:04:37.403Z,9.60
2018-08-13T10:07:06.105Z,9.50
2018-08-13T10:09:34.485Z,9.80
2018-08-13T10:12:03.474Z,10.60
2018-08-13T10:14:31.863Z,11.10
2018-08-13T10:17:00.072Z,11.40
2018-08-13T10:19:28.369Z,10.70
2018-08-13T10:21:56.593Z,10.10
2018-08-13T10:24:24.958Z,10.20
2018-08-13T10:26:53.159Z,11.00
2018-08-13T10:29:22.144Z,10.60
2018-08-13T10:31:50.326Z,10.20
2018-08-13T10:34:18.650Z,10.10
2018-08-13T10:36:47.231Z,9.80
2018-08-13T10:39:15.772Z,9.20
2018-08-13T10:41:45.075Z,9.70
2018-08-13T10:44:13.337Z,9.80
2018-08-13T10:46:41.611Z,9.60
2018-08-13T10:49:09.769Z,9.40
2018-08-13T10:51:37.992Z,9.10
2018-08-13T10:54:06.419Z,9.40
2018-08-13T10:56:34.687Z,9.40
2018-08-13T10:59:04.638Z,9.20
2018-08-13T11:01:32.908Z,9.10
2018-08-13T11:04:01.134Z,8.90
2018-08-13T11:06:29.472Z,9.10
2018-08-13T11:08:57.700Z,9.40
2018-08-13T11:11:26.866Z,9.70
2018-08-13T11:13:55.408Z,10.30
2018-08-13T11:16:23.679Z,9.80
2018-08-13T11:18:52.065Z,9.10
2018-08-13T11:21:20.269Z,9.20
2018-08-13T11:23:48.528Z,9.20
2018-08-13T11:26:17.802Z,9.10
2018-08-13T11:28:46.326Z,9.20
2018-08-13T11:31:14.566Z,10.30
2018-08-13T11:33:42.990Z,11.60
2018-08-13T11:36:11.505Z,12.70
2018-08-13T11:38:39.741Z,13.50
2018-08-13T11:41:08.201Z,14.10
2018-08-13T11:43:36.504Z,15.20
2018-08-13T11:46:04.797Z,14.40
2018-08-13T11:48:33.045Z,13.40
2018-08-13T11:51:01.887Z,12.80
2018-08-13T11:53:30.153Z,13.40
2018-08-13T11:55:58.481Z,13.40
2018-08-13T11:58:26.781Z,14.50
2018-08-13T12:00:55.220Z,15.60
2018-08-13T12:03:23.653Z,16.80
2018-08-13T12:05:51.921Z,17.60
2018-08-13T12:08:20.217Z,18.90
2018-08-13T12:10:48.447Z,19.50
2018-08-13T12:13:17.325Z,20.10
2018-08-13T12:15:45.712Z,20.30
2018-08-13T12:18:14.346Z,20.00
2018-08-13T12:20:42.685Z,19.70
2018-08-13T12:23:10.972Z,19.50
2018-08-13T12:25:39.610Z,18.90
2018-08-13T12:28:07.952Z,18.10
2018-08-13T12:30:36.472Z,17.80
2018-08-13T12:33:05.834Z,17.50
2018-08-13T12:35:34.091Z,17.70
2018-08-13T12:38:02.469Z,17.70
2018-08-13T12:40:30.974Z,17.80
2018-08-13T12:42:59.314Z,18.20
2018-08-13T12:45:28.051Z,18.70
2018-08-13T12:47:56.946Z,18.80
2018-08-13T12:50:25.185Z,19.20
2018-08-13T12:52:53.569Z,19.50
2018-08-13T12:55:22.011Z,20.10
2018-08-13T12:57:50.414Z,20.40
2018-08-13T13:00:19.046Z,21.00
2018-08-13T13:02:47.298Z,21.40
2018-08-13T13:05:16.545Z,21.50
2018-08-13T13:07:44.880Z,21.50
2018-08-13T13:10:14.549Z,21.30
2018-08-13T13:12:43.333Z,22.30
2018-08-13T13:15:17.194Z,21.90
2018-08-13T13:17:45.621Z,22.30
2018-08-13T13:20:19.594Z,23.20
2018-08-13T13:22:48.447Z,23.80
2018-08-13T13:25:17.147Z,24.70
2018-08-13T13:27:45.496Z,48.90
2018-08-13T13:30:15.255Z,26.10
2018-08-13T13:32:43.853Z,27.10
2018-08-13T13:35:14.518Z,28.50
2018-08-13T13:37:42.977Z,29.60
2018-08-13T13:40:13.525Z,30.80
2018-08-13T13:42:41.841Z,32.30
2018-08-13T13:45:10.912Z,33.10
2018-08-13T13:47:39.351Z,33.70
2018-08-13T13:50:11.746Z,35.30
2018-08-13T13:52:40.001Z,37.00
2018-08-13T13:55:08.289Z,38.40
2018-08-13T13:57:36.541Z,40.30
2018-08-13T14:00:17.318Z,40.30
2018-08-13T14:02:47.486Z,40.70
2018-08-13T14:05:15.826Z,42.60
2018-08-13T14:07:44.142Z,42.80
2018-08-13T14:10:19.506Z,43.30
2018-08-13T14:12:47.823Z,43.90
2018-08-13T14:15:20.521Z,43.60
2018-08-13T14:17:49.354Z,43.60
2018-08-13T14:20:18.411Z,44.20
2018-08-13T14:22:46.741Z,44.50
2018-08-13T14:25:15.596Z,47.30
2018-08-13T14:27:43.807Z,48.80
2018-08-13T14:30:28.182Z,51.40
2018-08-13T14:32:56.440Z,52.00
2018-08-13T14:35:24.989Z,51.50
2018-08-13T14:37:53.295Z,52.70
2018-08-13T14:40:21.574Z,50.90
2018-08-13T14:42:49.824Z,50.00
2018-08-13T14:45:18.859Z,51.10
2018-08-13T14:47:49.134Z,50.70
2018-08-13T14:50:17.361Z,50.00
2018-08-13T14:52:46.604Z,51.60
2018-08-13T14:55:19.869Z,51.60
2018-08-13T14:57:48.210Z,52.40
2018-08-13T15:00:20.964Z,52.50
2018-08-13T15:02:50.312Z,53.50
2018-08-13T15:05:18.608Z,55.00
2018-08-13T15:07:46.882Z,54.00
2018-08-13T15:10:20.258Z,53.30
2018-08-13T15:12:48.865Z,53.20
2018-08-13T15:15:17.274Z,54.10
2018-08-13T15:17:45.768Z,54.30
2018-08-13T15:20:20.163Z,53.40
2018-08-13T15:22:48.610Z,53.50
2018-08-13T15:25:17.116Z,53.30
2018-08-13T15:27:45.656Z,52.90
2018-08-13T15:30:15.828Z,53.40
2018-08-13T15:32:45.294Z,54.40
2018-08-13T15:35:14.253Z,53.10
2018-08-13T15:37:43.075Z,53.00
2018-08-13T15:40:11.596Z,52.80
2018-08-13T15:42:40.431Z,52.60
2018-08-13T15:45:12.315Z,52.10
2018-08-13T15:47:40.811Z,51.80
2018-08-13T15:50:11.185Z,51.30
2018-08-13T15:52:39.497Z,51.30
2018-08-13T15:55:08.316Z,50.50
2018-08-13T15:57:37.431Z,50.70
2018-08-13T16:00:07.693Z,50.50
2018-08-13T16:02:36.122Z,50.80
2018-08-13T16:05:06.715Z,50.70
2018-08-13T16:07:34.981Z,50.70
2018-08-13T16:10:05.469Z,50.60
2018-08-13T16:12:34.744Z,50.50
2018-08-13T16:15:03.084Z,50.80
2018-08-13T16:17:31.315Z,51.20
2018-08-13T16:19:59.691Z,51.10
2018-08-13T16:22:28.001Z,51.30
2018-08-13T16:24:56.324Z,51.40
2018-08-13T16:27:24.834Z,51.30
2018-08-13T16:29:53.157Z,51.60
2018-08-13T16:32:21.381Z,51.30
2018-08-13T16:34:49.594Z,51.00
2018-08-13T16:37:17.850Z,50.30
2018-08-13T16:39:46.097Z,50.20
2018-08-13T16:42:14.424Z,49.90
2018-08-13T16:44:42.627Z,49.80
2018-08-13T16:47:10.898Z,49.60
2018-08-13T16:49:39.146Z,49.60
2018-08-13T16:52:07.654Z,49.50
2018-08-13T16:54:36.249Z,49.10
2018-08-13T16:57:05.202Z,48.90
2018-08-13T16:59:33.503Z,48.60
2018-08-13T17:02:01.766Z,48.40
2018-08-13T17:04:30.244Z,48.20
2018-08-13T17:06:58.751Z,48.40
2018-08-13T17:09:27.022Z,48.20
2018-08-13T17:11:56.186Z,48.20
2018-08-13T17:14:24.600Z,48.30
2018-08-13T17:16:52.690Z,48.30
2018-08-13T17:19:21.019Z,48.50
2018-08-13T17:21:49.341Z,48.80
2018-08-13T17:24:17.572Z,48.90
2018-08-13T17:26:45.868Z,49.00
2018-08-13T17:29:14.183Z,49.40
2018-08-13T17:31:42.399Z,49.60
2018-08-13T17:34:11.083Z,49.60
2018-08-13T17:36:39.522Z,49.70
2018-08-13T17:39:15.077Z,49.90
2018-08-13T17:41:43.332Z,50.00
2018-08-13T17:44:12.635Z,50.10
2018-08-13T17:46:40.994Z,50.10
2018-08-13T17:49:09.338Z,50.00
2018-08-13T17:51:38.029Z,50.00
2018-08-13T17:54:06.624Z,50.30
2018-08-13T17:56:34.922Z,50.30
2018-08-13T17:59:03.321Z,50.50
2018-08-13T18:01:31.889Z,50.70
2018-08-13T18:04:00.104Z,51.00
2018-08-13T18:06:28.496Z,51.10
2018-08-13T18:08:57.650Z,51.10
2018-08-13T18:11:26.167Z,51.10
2018-08-13T18:13:54.615Z,51.10
2018-08-13T18:16:22.930Z,51.30
2018-08-13T18:18:51.855Z,51.50
2018-08-13T18:21:20.179Z,51.60
2018-08-13T18:23:48.572Z,51.70
2018-08-13T18:26:16.903Z,51.90
2018-08-13T18:28:45.216Z,52.10
2018-08-13T18:31:13.397Z,52.20
2018-08-13T18:33:41.673Z,52.40
2018-08-13T18:36:10.051Z,53.10
2018-08-13T18:38:38.516Z,52.50
2018-08-13T18:41:06.955Z,52.70
2018-08-13T18:43:35.331Z,52.90
2018-08-13T18:46:03.892Z,53.10
2018-08-13T18:48:32.175Z,53.40
2018-08-13T18:51:00.503Z,53.50
2018-08-13T18:53:28.792Z,53.80
2018-08-13T18:55:57.200Z,54.10
2018-08-13T18:58:25.466Z,54.20
2018-08-13T19:00:53.806Z,54.40
2018-08-13T19:03:22.304Z,54.50
2018-08-13T19:05:50.632Z,54.80
2018-08-13T19:08:18.973Z,55.00
2018-08-13T19:10:47.313Z,55.10
2018-08-13T19:13:15.847Z,55.20
2018-08-13T19:15:44.296Z,55.30
2018-08-13T19:18:12.717Z,55.60
2018-08-13T19:20:41.042Z,55.80
2018-08-13T19:23:09.413Z,56.00
2018-08-13T19:25:37.801Z,56.30
2018-08-13T19:28:06.715Z,56.50
2018-08-13T19:30:35.128Z,56.60
2018-08-13T19:33:03.540Z,56.70
2018-08-13T19:35:32.039Z,57.60
2018-08-13T19:38:01.235Z,57.10
2018-08-13T19:40:29.811Z,57.40
2018-08-13T19:42:59.135Z,57.30
2018-08-13T19:45:28.012Z,57.40
2018-08-13T19:47:56.641Z,57.40
2018-08-13T19:50:25.222Z,57.50
2018-08-13T19:52:53.599Z,57.50
2018-08-13T19:55:22.314Z,57.40
2018-08-13T19:57:51.148Z,57.50
2018-08-13T20:00:23.896Z,57.70
2018-08-13T20:02:53.049Z,57.80
2018-08-13T20:05:22.755Z,57.90
2018-08-13T20:07:51.516Z,58.00
2018-08-13T20:10:19.857Z,58.20
2018-08-13T20:12:48.371Z,58.20
2018-08-13T20:15:16.685Z,58.40
2018-08-13T20:17:45.257Z,58.40
2018-08-13T20:20:16.258Z,58.70
2018-08-13T20:22:45.421Z,58.50
2018-08-13T20:25:15.636Z,58.60
2018-08-13T20:27:44.453Z,58.60
2018-08-13T20:30:16.184Z,58.80
2018-08-13T20:32:45.732Z,58.90
2018-08-13T20:35:14.155Z,59.10
2018-08-13T20:37:42.575Z,59.10
2018-08-13T20:40:13.604Z,59.10
2018-08-13T20:42:42.360Z,58.80
2018-08-13T20:45:13.384Z,59.20
2018-08-13T20:47:42.022Z,59.30
2018-08-13T20:50:14.329Z,59.30
2018-08-13T20:52:43.178Z,59.50
2018-08-13T20:55:17.433Z,60.20
2018-08-13T20:57:47.161Z,59.40
2018-08-13T21:00:16.796Z,59.40
2018-08-13T21:02:46.153Z,59.30
2018-08-13T21:05:14.657Z,59.40
2018-08-13T21:07:43.458Z,59.40
2018-08-13T21:10:14.442Z,59.60
2018-08-13T21:12:42.681Z,59.60
2018-08-13T21:15:12.594Z,59.70
2018-08-13T21:17:40.986Z,59.70
2018-08-13T21:20:11.109Z,60.00
2018-08-13T21:22:39.336Z,59.90
2018-08-13T21:25:11.817Z,60.10
2018-08-13T21:27:42.947Z,60.10
2018-08-13T21:30:11.365Z,60.20
2018-08-13T21:32:40.769Z,60.30
2018-08-13T21:35:09.633Z,60.40
2018-08-13T21:37:38.170Z,60.50
2018-08-13T21:40:08.397Z,60.50
2018-08-13T21:42:36.691Z,60.40
2018-08-13T21:45:06.305Z,60.50
2018-08-13T21:47:34.707Z,60.50
2018-08-13T21:50:03.836Z,60.70
2018-08-13T21:52:32.090Z,60.70
2018-08-13T21:55:00.526Z,61.00
2018-08-13T21:57:28.817Z,61.10
2018-08-13T21:59:57.052Z,61.20
2018-08-13T22:02:26.305Z,61.40
2018-08-13T22:04:54.621Z,61.50
2018-08-13T22:07:22.822Z,61.60
2018-08-13T22:09:51.017Z,61.70
2018-08-13T22:12:20.682Z,61.90
2018-08-13T22:14:49.444Z,62.10
2018-08-13T22:17:17.980Z,62.20
2018-08-13T22:19:46.225Z,62.10
2018-08-13T22:22:15.380Z,62.20
2018-08-13T22:25:00.692Z,62.30
2018-08-13T22:27:29.180Z,62.30
2018-08-13T22:29:58.692Z,62.10
2018-08-13T22:32:27.641Z,62.40
2018-08-13T22:34:55.886Z,62.50
2018-08-13T22:37:24.239Z,62.90
2018-08-13T22:39:52.450Z,63.20
2018-08-13T22:42:21.149Z,63.50
2018-08-13T22:44:50.361Z,64.00
2018-08-13T22:47:19.054Z,64.10
2018-08-13T22:49:47.340Z,64.40
2018-08-13T22:52:15.827Z,64.70
2018-08-13T22:54:44.306Z,65.00
2018-08-13T22:57:12.650Z,65.20
2018-08-13T22:59:40.885Z,65.70
2018-08-13T23:02:09.317Z,65.80
2018-08-13T23:04:37.603Z,66.00
2018-08-13T23:07:06.322Z,66.30
2018-08-13T23:09:34.634Z,66.60
2018-08-13T23:12:05.912Z,66.70
2018-08-13T23:14:34.548Z,66.90
2018-08-13T23:17:03.005Z,67.00
2018-08-13T23:19:31.178Z,67.00
2018-08-13T23:21:59.943Z,67.10
2018-08-13T23:24:28.638Z,67.00
2018-08-13T23:26:57.288Z,67.20
2018-08-13T23:29:25.561Z,67.30
2018-08-13T23:31:53.799Z,67.30
2018-08-13T23:34:21.900Z,67.30
2018-08-13T23:36:50.121Z,67.30
2018-08-13T23:39:18.497Z,67.00
2018-08-13T23:41:46.831Z,66.90
2018-08-13T23:44:15.043Z,66.80
2018-08-13T23:46:43.251Z,66.50
2018-08-13T23:49:11.504Z,66.60
2018-08-13T23:51:39.745Z,66.60
2018-08-13T23:54:07.974Z,66.90
2018-08-13T23:56:36.339Z,67.00
2018-08-13T23:59:04.737Z,67.20
